createdAt,value
2019-04-25T00:03:18.273Z,93.80
2019-04-25T00:05:53.975Z,93.70
2019-04-25T00:08:24.448Z,94.00
2019-04-25T00:10:56.275Z,93.80
2019-04-25T00:13:41.917Z,94.00
2019-04-25T00:16:21.167Z,93.90
2019-04-25T00:27:16.497Z,94.10
2019-04-25T00:29:48.754Z,94.20
2019-04-25T00:32:21.676Z,94.70
2019-04-25T00:34:52.851Z,94.70
2019-04-25T00:37:24.246Z,94.50
2019-04-25T00:39:53.636Z,94.10
2019-04-25T00:42:23.582Z,93.80
2019-04-25T00:44:53.829Z,93.90
2019-04-25T00:47:23.827Z,94.00
2019-04-25T00:49:53.681Z,94.00
2019-04-25T00:52:24.186Z,94.00
2019-04-25T00:55:02.075Z,93.70
2019-04-25T00:57:32.450Z,94.20
2019-04-25T01:00:33.308Z,94.30
2019-04-25T01:03:28.785Z,94.40
2019-04-25T01:05:59.068Z,94.30
2019-04-25T01:08:34.016Z,94.30
2019-04-25T01:11:03.794Z,94.20
2019-04-25T01:13:34.143Z,94.40
2019-04-25T01:16:08.274Z,94.30
2019-04-25T01:18:43.550Z,94.40
2019-04-25T01:21:16.664Z,94.20
2019-04-25T01:23:47.922Z,94.00
2019-04-25T01:26:21.732Z,94.20
2019-04-25T01:28:54.076Z,94.20
2019-04-25T01:31:26.741Z,94.50
2019-04-25T01:34:15.030Z,94.70
2019-04-25T01:37:01.516Z,94.80
2019-04-25T01:39:51.163Z,94.70
2019-04-25T01:42:36.699Z,94.40
2019-04-25T01:45:08.660Z,94.60
2019-04-25T01:47:38.977Z,95.20
2019-04-25T01:50:09.606Z,95.40
2019-04-25T01:52:41.071Z,94.80
2019-04-25T01:55:11.026Z,95.30
2019-04-25T01:57:40.943Z,94.90
2019-04-25T02:00:13.966Z,94.80
2019-04-25T02:02:44.556Z,95.00
2019-04-25T02:05:15.492Z,95.50
2019-04-25T02:07:46.404Z,95.50
2019-04-25T02:10:16.450Z,95.60
2019-04-25T02:16:30.984Z,96.00
2019-04-25T02:19:04.444Z,96.10
2019-04-25T02:21:39.390Z,96.40
2019-04-25T02:24:11.367Z,96.20
2019-04-25T02:26:43.820Z,96.30
2019-04-25T02:29:19.092Z,95.90
2019-04-25T02:31:59.220Z,96.40
2019-04-25T02:34:28.096Z,95.80
2019-04-25T02:37:01.500Z,95.70
2019-04-25T02:39:30.654Z,96.00
2019-04-25T02:42:06.279Z,95.90
2019-04-25T02:44:34.705Z,96.10
2019-04-25T02:47:14.842Z,95.80
2019-04-25T02:50:26.448Z,95.50
2019-04-25T02:53:07.047Z,95.30
2019-04-25T02:55:37.705Z,95.30
2019-04-25T02:58:10.295Z,95.50
2019-04-25T03:00:55.109Z,95.70
2019-04-25T03:03:15.813Z,96.10
2019-04-25T03:05:57.297Z,96.50
2019-04-25T03:08:30.558Z,96.60
2019-04-25T03:11:05.771Z,96.40
2019-04-25T03:13:44.144Z,96.40
2019-04-25T03:16:14.659Z,96.40
2019-04-25T03:24:25.245Z,96.10
2019-04-25T03:26:59.671Z,96.00
2019-04-25T03:29:32.203Z,96.00
2019-04-25T03:32:04.062Z,96.00
2019-04-25T03:34:35.313Z,95.90
2019-04-25T03:37:06.454Z,95.90
2019-04-25T03:39:36.480Z,96.00
2019-04-25T03:42:06.272Z,96.10
2019-04-25T03:44:58.927Z,96.10
2019-04-25T03:47:36.744Z,96.20
2019-04-25T03:52:57.655Z,96.50
2019-04-25T03:55:27.795Z,96.70
2019-04-25T03:58:07.540Z,96.50
2019-04-25T04:06:04.394Z,96.90
2019-04-25T04:08:58.464Z,96.80
2019-04-25T04:11:29.270Z,96.90
2019-04-25T04:14:21.719Z,97.00
2019-04-25T04:17:24.259Z,97.30
2019-04-25T04:20:13.896Z,97.20
2019-04-25T04:22:49.984Z,97.30
2019-04-25T04:28:00.573Z,97.10
2019-04-25T04:30:30.597Z,96.90
2019-04-25T04:33:03.630Z,96.80
2019-04-25T04:35:36.515Z,96.70
2019-04-25T04:38:06.037Z,96.70
2019-04-25T04:40:36.179Z,96.60
2019-04-25T04:45:44.982Z,97.00
2019-04-25T04:48:43.827Z,96.70
2019-04-25T04:51:16.890Z,96.70
2019-04-25T04:53:55.042Z,97.00
2019-04-25T04:56:29.722Z,97.00
2019-04-25T05:02:05.909Z,97.10
2019-04-25T05:05:03.643Z,97.00
2019-04-25T05:07:50.596Z,97.30
2019-04-25T05:10:27.717Z,97.50
2019-04-25T05:21:04.161Z,97.90
2019-04-25T05:23:34.392Z,98.00
2019-04-25T05:26:04.767Z,98.00
2019-04-25T05:28:35.449Z,97.80
2019-04-25T05:31:19.844Z,98.20
2019-04-25T05:36:29.041Z,99.00
2019-04-25T05:39:04.509Z,98.40
2019-04-25T05:41:40.164Z,98.00
2019-04-25T05:44:16.951Z,97.70
2019-04-25T05:46:54.082Z,97.50
2019-04-25T05:49:25.471Z,97.80
2019-04-25T05:52:00.256Z,97.90
2019-04-25T05:54:32.013Z,98.10
2019-04-25T05:57:03.680Z,97.90
2019-04-25T05:59:37.726Z,97.60
2019-04-25T06:02:09.451Z,97.50
2019-04-25T06:04:53.387Z,97.60
2019-04-25T06:07:25.793Z,97.50
2019-04-25T06:10:21.749Z,97.40
2019-04-25T06:19:44.504Z,97.00
2019-04-25T06:23:29.462Z,96.60
2019-04-25T06:26:16.069Z,96.60
2019-04-25T06:28:49.296Z,97.10
2019-04-25T06:31:13.816Z,97.30
2019-04-25T06:33:44.991Z,97.00
2019-04-25T06:36:15.573Z,96.90
2019-04-25T06:39:17.367Z,96.90
2019-04-25T06:42:13.719Z,96.80
2019-04-25T06:49:16.848Z,96.90
2019-04-25T07:04:11.715Z,97.40
2019-04-25T07:10:38.682Z,98.20
2019-04-25T07:22:53.692Z,96.30
2019-04-25T07:25:28.609Z,96.00
2019-04-25T07:28:35.674Z,96.10
2019-04-25T07:31:20.933Z,94.90
2019-04-25T07:34:05.734Z,95.20
2019-04-25T07:37:13.237Z,94.80
2019-04-25T07:50:57.650Z,93.20
2019-04-25T07:53:47.454Z,92.30
2019-04-25T07:57:53.247Z,93.40
2019-04-25T08:00:51.623Z,92.00
2019-04-25T08:03:34.119Z,92.00
2019-04-25T08:09:31.514Z,91.80
2019-04-25T08:12:05.117Z,90.10
2019-04-25T08:15:05.673Z,90.50
2019-04-25T08:21:16.966Z,89.40
2019-04-25T08:23:49.793Z,89.00
2019-04-25T08:26:23.971Z,88.30
2019-04-25T08:28:57.241Z,86.70
2019-04-25T08:31:27.264Z,86.70
2019-04-25T08:33:59.079Z,87.20
2019-04-25T08:44:37.764Z,85.60
2019-04-25T08:50:36.775Z,85.40
2019-04-25T08:53:06.316Z,83.60
2019-04-25T08:56:10.349Z,82.70
2019-04-25T08:59:14.836Z,83.70
2019-04-25T09:18:07.171Z,81.70
2019-04-25T09:20:42.049Z,80.20
2019-04-25T09:23:16.245Z,80.10
2019-04-25T09:25:47.697Z,81.20
2019-04-25T09:28:34.857Z,79.10
2019-04-25T09:31:08.227Z,79.90
2019-04-25T09:36:54.001Z,78.70
2019-04-25T09:39:47.485Z,80.60
2019-04-25T09:42:20.488Z,78.30
2019-04-25T09:45:13.370Z,77.90
2019-04-25T09:47:46.488Z,78.60
2019-04-25T09:50:38.213Z,79.50
2019-04-25T09:53:23.607Z,78.20
2019-04-25T09:58:57.631Z,77.00
2019-04-25T10:01:29.699Z,76.60
2019-04-25T10:04:13.350Z,74.40
2019-04-25T10:07:18.764Z,74.50
2019-04-25T10:10:17.855Z,75.60
2019-04-25T10:16:12.954Z,75.00
2019-04-25T10:18:46.387Z,73.40
2019-04-25T10:21:19.357Z,73.50
2019-04-25T10:23:51.215Z,73.00
2019-04-25T10:26:23.449Z,73.90
2019-04-25T10:28:55.391Z,72.50
2019-04-25T10:35:00.050Z,71.30
2019-04-25T10:41:59.234Z,68.90
2019-04-25T10:45:23.116Z,70.40
2019-04-25T10:48:34.540Z,68.90
2019-04-25T10:51:24.013Z,67.00
2019-04-25T10:59:33.584Z,63.80
2019-04-25T11:02:09.426Z,69.90
2019-04-25T11:10:50.801Z,64.00
2019-04-25T11:13:23.124Z,63.60
2019-04-25T11:15:55.850Z,65.90
2019-04-25T11:18:25.266Z,68.00
2019-04-25T11:20:56.305Z,63.90
2019-04-25T11:23:30.210Z,60.00
2019-04-25T11:26:03.922Z,60.20
2019-04-25T11:28:42.513Z,60.80
2019-04-25T11:33:14.322Z,61.40
2019-04-25T11:38:52.187Z,60.10
2019-04-25T11:41:46.112Z,59.10
2019-04-25T11:47:27.180Z,60.30
2019-04-25T11:53:59.292Z,59.10
2019-04-25T11:56:18.306Z,56.80
2019-04-25T12:00:04.122Z,58.10
2019-04-25T12:02:38.016Z,59.50
2019-04-25T12:12:25.229Z,57.00
2019-04-25T12:17:32.781Z,60.20
2019-04-25T12:20:05.759Z,57.80
2019-04-25T12:22:35.829Z,57.60
2019-04-25T12:25:09.303Z,57.00
2019-04-25T12:29:01.184Z,56.70
2019-04-25T12:31:54.764Z,57.90
2019-04-25T12:38:39.437Z,57.50
2019-04-25T12:54:11.629Z,58.60
2019-04-25T13:08:20.111Z,52.60
2019-04-25T13:10:54.461Z,55.70
2019-04-25T13:16:30.069Z,54.10
2019-04-25T13:19:12.473Z,52.30
2019-04-25T13:21:34.585Z,52.50
2019-04-25T13:24:06.855Z,53.00
2019-04-25T13:26:43.522Z,51.00
2019-04-25T13:29:35.281Z,50.90
2019-04-25T13:32:23.813Z,50.80
2019-04-25T13:34:53.834Z,50.60
2019-04-25T13:37:24.195Z,50.90
2019-04-25T13:39:54.191Z,48.70
2019-04-25T13:42:24.317Z,49.80
2019-04-25T13:44:54.363Z,48.70
2019-04-25T13:47:28.001Z,49.20
2019-04-25T13:49:56.910Z,49.30
2019-04-25T13:52:28.936Z,49.50
2019-04-25T13:54:59.559Z,47.40
2019-04-25T13:57:29.949Z,47.40
2019-04-25T14:00:00.071Z,51.40
2019-04-25T14:02:30.201Z,47.80
2019-04-25T14:05:03.597Z,47.60
2019-04-25T14:07:36.610Z,47.90
2019-04-25T14:13:13.397Z,50.80
2019-04-25T14:15:48.294Z,48.70
2019-04-25T14:18:37.472Z,49.00
2019-04-25T14:23:48.148Z,48.30
2019-04-25T14:26:18.955Z,47.80
2019-04-25T14:28:48.480Z,51.30
2019-04-25T14:31:35.465Z,48.40
2019-04-25T14:33:51.771Z,49.00
2019-04-25T14:36:25.802Z,47.80
2019-04-25T14:38:54.378Z,49.00
2019-04-25T14:41:24.152Z,48.40
2019-04-25T14:43:53.754Z,48.90
2019-04-25T14:46:23.730Z,49.50
2019-04-25T14:48:54.576Z,50.30
2019-04-25T14:51:24.562Z,49.20
2019-04-25T14:53:55.463Z,51.00
2019-04-25T14:56:32.811Z,52.00
2019-04-25T14:59:03.533Z,50.30
2019-04-25T15:01:44.025Z,48.20
2019-04-25T15:04:04.876Z,47.60
2019-04-25T15:06:34.920Z,49.40
2019-04-25T15:09:05.845Z,51.30
2019-04-25T15:11:36.143Z,48.60
2019-04-25T15:14:06.373Z,49.20
2019-04-25T15:16:36.470Z,48.70
2019-04-25T15:19:06.714Z,49.30
2019-04-25T15:21:36.429Z,49.10
2019-04-25T15:24:06.343Z,49.10
2019-04-25T15:26:36.570Z,48.00
2019-04-25T15:29:06.935Z,51.00
2019-04-25T15:31:36.586Z,49.00
2019-04-25T15:34:07.192Z,47.40
2019-04-25T15:36:58.401Z,48.50
2019-04-25T15:39:45.070Z,51.30
2019-04-25T15:42:33.998Z,49.00
2019-04-25T15:45:41.815Z,48.30
2019-04-25T15:48:11.801Z,48.20
2019-04-25T15:50:41.813Z,49.20
2019-04-25T15:53:11.634Z,49.00
2019-04-25T15:55:41.648Z,49.00
2019-04-25T15:58:12.655Z,49.70
2019-04-25T16:00:42.770Z,50.50
2019-04-25T16:03:14.543Z,50.60
2019-04-25T16:05:45.058Z,49.90
2019-04-25T16:08:15.515Z,51.20
2019-04-25T16:10:45.976Z,51.80
2019-04-25T16:13:18.110Z,50.40
2019-04-25T16:15:54.066Z,50.50
2019-04-25T16:18:24.420Z,50.90
2019-04-25T16:20:54.634Z,51.90
2019-04-25T16:23:24.669Z,51.50
2019-04-25T16:25:54.750Z,51.80
2019-04-25T16:28:26.549Z,52.50
2019-04-25T16:30:58.284Z,52.60
2019-04-25T16:33:29.165Z,53.30
2019-04-25T16:35:59.393Z,53.70
2019-04-25T16:38:31.905Z,53.60
2019-04-25T16:41:01.971Z,53.40
2019-04-25T16:43:35.449Z,53.00
2019-04-25T16:46:06.691Z,53.70
2019-04-25T16:48:39.190Z,53.70
2019-04-25T16:52:52.583Z,53.60
2019-04-25T17:06:01.992Z,56.40
2019-04-25T17:09:20.262Z,55.60
2019-04-25T17:14:39.571Z,55.50
2019-04-25T17:20:44.921Z,53.70
2019-04-25T17:24:13.004Z,53.30
2019-04-25T17:30:42.150Z,55.50
2019-04-25T17:33:45.015Z,55.80
2019-04-25T17:47:54.492Z,55.80
2019-04-25T17:50:22.499Z,55.00
2019-04-25T17:52:53.519Z,55.30
2019-04-25T17:55:29.366Z,55.50
2019-04-25T17:58:05.347Z,55.00
2019-04-25T18:00:42.673Z,55.30
2019-04-25T18:03:25.278Z,55.60
2019-04-25T18:06:01.278Z,55.80
2019-04-25T18:08:58.213Z,56.20
2019-04-25T18:12:22.345Z,56.70
2019-04-25T18:33:29.361Z,87.50
2019-04-25T18:36:25.681Z,87.70
2019-04-25T18:39:14.891Z,87.20
2019-04-25T18:42:05.058Z,88.10
2019-04-25T18:44:36.633Z,88.00
2019-04-25T18:47:06.820Z,88.60
2019-04-25T18:49:38.565Z,89.20
2019-04-25T18:52:20.632Z,89.40
2019-04-25T18:55:14.144Z,90.00
2019-04-25T18:58:10.964Z,90.40
2019-04-25T19:04:39.976Z,91.00
2019-04-25T19:07:22.778Z,91.40
2019-04-25T19:10:45.656Z,91.80
2019-04-25T19:14:10.863Z,92.30
2019-04-25T19:16:43.012Z,93.20
2019-04-25T19:19:22.315Z,93.30
2019-04-25T19:22:40.151Z,93.60
2019-04-25T19:25:43.635Z,94.00
2019-04-25T19:31:17.398Z,94.60
2019-04-25T19:33:48.794Z,94.90
2019-04-25T19:36:25.523Z,95.10
2019-04-25T19:38:56.081Z,95.20
2019-04-25T19:41:31.950Z,95.70
2019-04-25T19:44:26.017Z,95.50
2019-04-25T19:52:52.755Z,96.10
2019-04-25T19:58:27.376Z,96.90
2019-04-25T20:01:00.863Z,96.90
2019-04-25T20:03:56.428Z,97.20
2019-04-25T20:07:22.706Z,97.20
2019-04-25T20:10:46.780Z,97.50
2019-04-25T20:13:30.600Z,97.00
2019-04-25T20:19:09.487Z,97.20
2019-04-25T20:24:33.807Z,97.20
2019-04-25T20:27:04.201Z,97.00
2019-04-25T20:29:34.579Z,97.10
2019-04-25T20:32:07.032Z,96.70
2019-04-25T20:34:36.879Z,96.40
2019-04-25T20:37:09.044Z,96.50
2019-04-25T20:39:38.668Z,96.10
2019-04-25T20:42:27.502Z,96.00
2019-04-25T20:45:10.731Z,95.60
2019-04-25T20:47:56.948Z,95.60
2019-04-25T20:50:28.410Z,95.40
2019-04-25T20:53:02.580Z,95.40
2019-04-25T20:56:28.029Z,95.20
2019-04-25T20:59:21.193Z,95.20
2019-04-25T21:02:08.397Z,95.10
2019-04-25T21:07:44.738Z,94.80
2019-04-25T21:10:29.426Z,95.20
2019-04-25T21:16:50.557Z,95.00
2019-04-25T21:19:27.531Z,94.80
2019-04-25T21:21:58.718Z,94.80
2019-04-25T21:24:29.210Z,94.90
2019-04-25T21:27:01.096Z,94.90
2019-04-25T21:29:32.479Z,95.10
2019-04-25T21:32:02.947Z,94.90
2019-04-25T21:34:32.749Z,94.70
2019-04-25T21:37:14.303Z,95.10
2019-04-25T21:39:55.794Z,94.70
2019-04-25T21:42:48.278Z,94.40
2019-04-25T21:45:22.813Z,94.50
2019-04-25T21:47:57.081Z,94.40
2019-04-25T21:50:48.498Z,94.60
2019-04-25T21:53:20.137Z,94.80
2019-04-25T21:55:56.886Z,94.80
2019-04-25T21:58:35.990Z,94.70
2019-04-25T22:01:21.627Z,94.70
2019-04-25T22:03:51.501Z,94.90
2019-04-25T22:06:22.135Z,94.90
2019-04-25T22:09:15.159Z,94.80
2019-04-25T22:14:26.114Z,94.90
2019-04-25T22:16:57.679Z,95.00
2019-04-25T22:19:29.423Z,94.90
2019-04-25T22:22:00.555Z,95.10
2019-04-25T22:24:35.046Z,95.10
2019-04-25T22:27:07.407Z,95.20
2019-04-25T22:29:41.557Z,95.20
2019-04-25T22:32:37.294Z,95.20
2019-04-25T22:35:17.940Z,95.30
2019-04-25T22:40:40.023Z,95.50
2019-04-25T22:43:23.160Z,95.60
2019-04-25T22:45:54.353Z,95.60
2019-04-25T22:54:07.178Z,95.90
2019-04-25T22:56:38.054Z,95.90
2019-04-25T22:59:09.095Z,95.90
2019-04-25T23:02:18.833Z,96.20
2019-04-25T23:05:14.100Z,96.20
2019-04-25T23:07:48.836Z,96.40
2019-04-25T23:10:50.412Z,96.70
2019-04-25T23:13:21.216Z,96.40
2019-04-25T23:15:58.275Z,96.80
2019-04-25T23:18:28.973Z,97.00
2019-04-25T23:20:58.927Z,96.90
2019-04-25T23:23:32.399Z,96.80
2019-04-25T23:26:08.346Z,96.60
2019-04-25T23:28:55.077Z,96.40
2019-04-25T23:31:47.214Z,96.50
2019-04-25T23:34:19.925Z,96.90
2019-04-25T23:36:56.162Z,97.80
2019-04-25T23:39:28.798Z,98.10
2019-04-25T23:41:59.956Z,97.90
2019-04-25T23:44:30.710Z,97.70
2019-04-25T23:47:07.262Z,97.70
2019-04-25T23:49:59.361Z,97.60
2019-04-25T23:52:44.143Z,97.70
2019-04-25T23:55:15.608Z,97.50
